サンティアゴ の空港の天気 - METARとTAF

アルトゥーロ・メリノ・ベニテス国際空港(サンティアゴ) ( SCEL / SCL ) - チリ サンティアゴ
飛行場実況気象(Metar)
観測時間12/14 03:00 CLST (12/14 06:00 UTC)
風向・風速南東 3m/s
視程10km以上
天気現象
なし
気温12℃
湿度71%
気圧1019hPa
METARSCEL 140600Z 14006KT CAVOK 12/07 Q1019 NOSIG
過去の天気等 Google飛行場航空写真 Wunderground天気予報

過去48時間のMETAR

飛行場予報(TAF)
発表時間: 12/14 01:30 CLST (12/14 04:30 UTC)
予報対象時間: 14日3時 CLST ~ 15日3時 CLST
風向・風速南南東 3m/s
視程10km以上
なし
14日6時 CLST ~ 14日10時 CLST に一時的に
風向・風速不定 1m/s
視程7000m
なし
14日12時 CLST ~ 14日14時 CLST に徐々に
風向・風速南 2m/s
14日16時 CLST ~ 14日18時 CLST に徐々に
風向・風速南南西 7m/s
14日23時 CLST ~ 15日1時 CLST に徐々に
風向・風速南南東 4m/s
TAF SCEL 140430Z 1406/1506 16005KT CAVOK TX28/1919Z TN11/1411Z
TEMPO 1409/1413 VRB02KT 7000 NSC
BECMG 1415/1417 18004KT
BECMG 1419/1421 20014KT
BECMG 1502/1504 16007KT